Weather at Waiheke Reeve Airport

Public forecast

Using degrees Celsius for public forecast. Weather courtesy of forecast.io.

Closest aviation weather report (METAR) to Waiheke Reeve Airport

Closest report is Auckland International Airport, 18.9 nm (34.9 km) SW.

2024/06/18 06:00 (retrieved 33 minutes ago)

NZAA 180600Z AUTO 10004KT 9999 FEW041/// BKN049/// 15/12 Q1011

Closest aviation forecast (TAF) to Waiheke Reeve Airport

Closest forecast is Auckland International Airport, 18.9 nm (34.9 km) SW.

2024/06/18 06:09 Ammendment (retrieved 24 minutes ago)

TAF AMD TAF AMD NZAA 180608Z 1806/1912 10005KT 9999 FEW025 SCT045 BECMG 1821/1823 08015KT